Time;durP1;ratioP1;P1;durP2;ratioP2;P2;SDS_P1;SDS_P2;PMS_P1;PMS_P2;Temp;Humidity;BMP_temperature;BMP_pressure;BME280_temperature;BME280_humidity;BME280_pressure;Samples;Min_cycle;Max_cycle;Signal;HPM_P1;HPM_P2
2021/10/13 00:02:03;;;;;;;0.70;0.70;;;1.10;99.90;;;;;;5033760;28;20251;-71
2021/10/13 00:04:29;;;;;;;0.70;0.70;;;1.10;99.90;;;;;;4988397;28;1195173;-71
2021/10/13 00:06:54;;;;;;;0.70;0.70;;;1.00;99.90;;;;;;5035317;28;20210;-71
2021/10/13 00:09:20;;;;;;;0.88;0.88;;;1.00;99.90;;;;;;5033701;28;20194;-71
2021/10/13 00:11:46;;;;;;;0.73;0.73;;;1.00;99.90;;;;;;5033665;28;20210;-71
2021/10/13 00:14:11;;;;;;;0.80;0.80;;;0.90;99.90;;;;;;5033881;28;20202;-71
2021/10/13 00:16:38;;;;;;;0.77;0.77;;;0.90;99.90;;;;;;5033853;28;20205;-72
2021/10/13 00:19:04;;;;;;;0.60;0.60;;;1.00;99.90;;;;;;5035203;28;20317;-71
2021/10/13 00:21:30;;;;;;;0.60;0.60;;;1.00;99.90;;;;;;4998920;28;20214;-71
2021/10/13 00:23:55;;;;;;;0.70;0.70;;;1.00;99.90;;;;;;5034706;28;20544;-71
2021/10/13 00:26:21;;;;;;;0.63;0.63;;;1.00;99.90;;;;;;5033445;28;20214;-71
2021/10/13 00:28:47;;;;;;;0.73;0.73;;;1.00;99.90;;;;;;5033506;28;20198;-72
2021/10/13 00:31:12;;;;;;;0.70;0.70;;;1.10;99.90;;;;;;5019117;28;20263;-72
2021/10/13 00:33:38;;;;;;;0.68;0.68;;;1.20;99.90;;;;;;5034651;28;20259;-71
2021/10/13 00:36:04;;;;;;;0.70;0.70;;;1.40;99.90;;;;;;5034450;28;20249;-72
2021/10/13 00:38:29;;;;;;;0.70;0.70;;;1.40;99.90;;;;;;5033165;28;20202;-72
2021/10/13 00:40:55;;;;;;;0.70;0.70;;;1.40;99.90;;;;;;5033139;28;20277;-71
2021/10/13 00:43:21;;;;;;;0.70;0.70;;;1.50;99.90;;;;;;5032943;28;20296;-71
2021/10/13 00:45:49;;;;;;;0.70;0.70;;;1.60;99.90;;;;;;5033118;28;20329;-72
2021/10/13 00:48:15;;;;;;;0.80;0.80;;;1.60;99.90;;;;;;5017706;28;20213;-72
2021/10/13 00:50:40;;;;;;;0.73;0.73;;;1.70;99.90;;;;;;5034226;28;20650;-72
2021/10/13 00:53:06;;;;;;;0.70;0.70;;;1.80;99.90;;;;;;5032959;28;20214;-72
2021/10/13 00:55:32;;;;;;;0.55;0.55;;;1.90;99.90;;;;;;5016797;28;20194;-72
2021/10/13 00:57:58;;;;;;;0.70;0.70;;;1.80;99.90;;;;;;5034198;28;20281;-72
2021/10/13 01:00:27;;;;;;;0.95;0.95;;;1.90;99.90;;;;;;5016372;28;20198;-72
2021/10/13 01:06:07;;;;;;;0.80;0.80;;;2.00;99.90;;;;;;5017728;28;20228;-74
2021/10/13 01:08:41;;;;;;;0.70;0.70;;;2.00;99.90;;;;;;5015771;28;20288;-74
2021/10/13 01:11:34;;;;;;;0.60;0.60;;;2.10;99.90;;;;;;5033913;28;20277;-74
2021/10/13 01:14:19;;;;;;;0.80;0.80;;;2.10;99.90;;;;;;5016182;28;20205;-74
2021/10/13 01:17:01;;;;;;;0.70;0.70;;;2.20;99.90;;;;;;5033989;28;20198;-74
2021/10/13 01:19:39;;;;;;;0.70;0.70;;;2.30;99.90;;;;;;5015897;28;20202;-74
2021/10/13 01:22:24;;;;;;;0.70;0.70;;;2.40;99.90;;;;;;5015894;28;20210;-74
2021/10/13 01:24:55;;;;;;;0.70;0.70;;;2.40;99.90;;;;;;5015971;28;20657;-74
2021/10/13 01:27:49;;;;;;;0.70;0.70;;;2.50;99.90;;;;;;5033456;28;20241;-74
2021/10/13 01:30:17;;;;;;;0.70;0.70;;;2.50;99.90;;;;;;5015914;28;20201;-74
2021/10/13 01:32:51;;;;;;;0.77;0.77;;;2.50;99.90;;;;;;5033378;28;20206;-74
2021/10/13 01:35:19;;;;;;;0.60;0.60;;;2.40;99.90;;;;;;5031021;28;20284;-74
2021/10/13 01:37:52;;;;;;;0.57;0.57;;;2.30;99.90;;;;;;5015822;28;20216;-74
2021/10/13 01:40:19;;;;;;;0.60;0.60;;;2.20;99.90;;;;;;5032202;28;20214;-74
2021/10/13 01:42:50;;;;;;;0.73;0.73;;;2.20;99.90;;;;;;5033381;28;20569;-74
2021/10/13 01:45:17;;;;;;;0.75;0.75;;;2.10;99.90;;;;;;5033465;28;20198;-73
2021/10/13 01:47:46;;;;;;;0.70;0.70;;;2.10;99.90;;;;;;5033123;28;20206;-73
2021/10/13 01:50:13;;;;;;;1.38;1.27;;;2.00;99.90;;;;;;5015446;28;20665;-73
2021/10/13 01:52:40;;;;;;;0.70;0.70;;;1.80;99.90;;;;;;5031882;28;20217;-73
2021/10/13 01:55:08;;;;;;;0.70;0.70;;;1.70;99.90;;;;;;5014061;28;20340;-73
2021/10/13 01:57:35;;;;;;;0.60;0.60;;;1.60;99.90;;;;;;5032956;28;20704;-75
2021/10/13 02:00:05;;;;;;;0.80;0.80;;;1.70;99.90;;;;;;5033208;28;20210;-74
2021/10/13 02:02:32;;;;;;;0.75;0.75;;;1.60;99.90;;;;;;5026416;28;20263;-74
2021/10/13 02:05:00;;;;;;;0.70;0.70;;;1.50;99.90;;;;;;5033014;28;20304;-74
2021/10/13 02:07:27;;;;;;;0.70;0.70;;;1.50;99.90;;;;;;5032800;28;20209;-75
2021/10/13 02:10:01;;;;;;;0.70;0.70;;;1.50;99.90;;;;;;5015102;28;20288;-74
2021/10/13 02:12:28;;;;;;;0.65;0.65;;;1.60;99.90;;;;;;5032762;28;20696;-75
2021/10/13 02:14:55;;;;;;;0.80;0.80;;;1.60;99.90;;;;;;5012752;28;20273;-75
2021/10/13 02:17:22;;;;;;;0.80;0.80;;;1.50;99.90;;;;;;5031289;28;20213;-74
2021/10/13 02:19:50;;;;;;;0.73;0.73;;;1.40;99.90;;;;;;5032195;28;20260;-74
2021/10/13 02:22:17;;;;;;;0.70;0.70;;;1.30;99.90;;;;;;5014804;28;20214;-74
2021/10/13 02:24:51;;;;;;;0.80;0.80;;;1.10;99.90;;;;;;5014857;28;20206;-74
2021/10/13 02:27:41;;;;;;;0.60;0.60;;;1.00;99.90;;;;;;5031876;28;20210;-74
2021/10/13 02:30:08;;;;;;;0.70;0.70;;;0.90;99.90;;;;;;5014758;28;20788;-73
2021/10/13 02:32:34;;;;;;;0.73;0.73;;;0.90;99.90;;;;;;5014467;28;20202;-74
2021/10/13 02:35:00;;;;;;;0.73;0.73;;;0.80;99.90;;;;;;5014808;28;20205;-73
2021/10/13 02:37:26;;;;;;;0.80;0.80;;;0.70;99.90;;;;;;5031990;28;20691;-73
2021/10/13 02:39:52;;;;;;;0.75;0.75;;;0.70;99.90;;;;;;5014656;28;20285;-72
2021/10/13 02:42:17;;;;;;;0.80;0.80;;;0.70;99.90;;;;;;5032128;28;20209;-73
2021/10/13 02:44:44;;;;;;;0.70;0.70;;;0.60;99.90;;;;;;5014584;28;20202;-73
2021/10/13 02:47:27;;;;;;;0.80;0.80;;;0.60;99.90;;;;;;5032301;28;20202;-73
2021/10/13 02:50:08;;;;;;;0.70;0.70;;;0.50;99.90;;;;;;5032085;28;20284;-73
2021/10/13 02:52:44;;;;;;;0.80;0.80;;;0.40;99.90;;;;;;5013973;28;20210;-74
2021/10/13 02:55:25;;;;;;;0.70;0.70;;;0.40;99.90;;;;;;5014582;28;20201;-74
2021/10/13 02:58:03;;;;;;;0.80;0.80;;;0.40;99.90;;;;;;4997845;28;20715;-74
2021/10/13 03:00:32;;;;;;;0.70;0.70;;;0.30;99.90;;;;;;4996936;28;20202;-73
2021/10/13 03:03:06;;;;;;;0.80;0.80;;;0.30;99.90;;;;;;5030381;28;20627;-74
2021/10/13 03:05:32;;;;;;;0.80;0.80;;;0.30;99.90;;;;;;5014873;28;20265;-74
2021/10/13 03:08:02;;;;;;;0.80;0.80;;;0.30;99.90;;;;;;5032132;28;20202;-73
2021/10/13 03:10:29;;;;;;;0.80;0.80;;;0.20;99.90;;;;;;5031068;28;20230;-75
2021/10/13 03:12:58;;;;;;;0.80;0.80;;;0.20;99.90;;;;;;5032036;28;20206;-74
2021/10/13 03:15:26;;;;;;;0.63;0.63;;;0.20;99.90;;;;;;5015394;28;20581;-74
2021/10/13 03:17:55;;;;;;;0.70;0.70;;;0.10;99.90;;;;;;5032320;28;20217;-74
2021/10/13 03:20:22;;;;;;;0.65;0.65;;;0.10;99.90;;;;;;5031487;28;20209;-74
2021/10/13 03:22:49;;;;;;;0.60;0.60;;;0.10;99.90;;;;;;5014016;28;20297;-74
2021/10/13 03:25:23;;;;;;;0.75;0.75;;;0.10;99.90;;;;;;5030789;28;20600;-74
2021/10/13 03:27:49;;;;;;;0.90;0.90;;;0.00;99.90;;;;;;5011988;28;20202;-74
2021/10/13 03:30:14;;;;;;;0.80;0.80;;;0.00;99.90;;;;;;5031420;28;20257;-74
2021/10/13 03:32:44;;;;;;;0.80;0.80;;;0.00;99.90;;;;;;5030835;28;20221;-74
2021/10/13 03:35:10;;;;;;;0.82;0.82;;;0.00;99.90;;;;;;5031306;28;20206;-74
2021/10/13 03:37:36;;;;;;;0.80;0.80;;;0.00;99.90;;;;;;5031313;28;20209;-74
2021/10/13 03:40:02;;;;;;;0.80;0.80;;;-0.10;99.90;;;;;;5012688;28;20209;-74
2021/10/13 03:42:27;;;;;;;0.70;0.70;;;-0.10;99.90;;;;;;5031081;28;20216;-74
2021/10/13 03:44:53;;;;;;;0.80;0.80;;;-0.10;99.90;;;;;;5031506;28;20199;-74
2021/10/13 03:47:18;;;;;;;17.95;2.60;;;-0.20;99.90;;;;;;5013802;28;20217;-74
2021/10/13 03:49:44;;;;;;;0.60;0.60;;;-0.20;99.90;;;;;;5013847;28;20198;-74
2021/10/13 03:52:10;;;;;;;0.90;0.90;;;-0.20;99.90;;;;;;5030046;28;20304;-74
2021/10/13 03:54:35;;;;;;;0.77;0.77;;;-0.20;99.90;;;;;;5031274;28;20205;-74
2021/10/13 03:57:01;;;;;;;0.70;0.70;;;-0.20;99.90;;;;;;5031371;28;20280;-74
2021/10/13 03:59:27;;;;;;;0.65;0.65;;;-0.30;99.90;;;;;;5013528;28;20205;-73
2021/10/13 04:01:52;;;;;;;0.80;0.80;;;-0.30;99.90;;;;;;5029823;28;20271;-74
2021/10/13 04:04:18;;;;;;;0.70;0.70;;;-0.30;99.90;;;;;;5013696;28;20288;-73
2021/10/13 04:06:44;;;;;;;0.82;0.82;;;-0.30;99.90;;;;;;5031007;28;20217;-73
2021/10/13 04:09:09;;;;;;;0.85;0.85;;;-0.40;99.90;;;;;;5013344;28;20237;-73
2021/10/13 04:11:35;;;;;;;0.90;0.90;;;-0.40;99.90;;;;;;5030557;28;20213;-74
2021/10/13 04:14:01;;;;;;;0.80;0.80;;;-0.50;99.90;;;;;;5030825;28;20210;-74
2021/10/13 04:16:26;;;;;;;0.80;0.80;;;-0.50;99.90;;;;;;5012756;28;20210;-74
2021/10/13 04:18:52;;;;;;;0.90;0.90;;;-0.50;99.90;;;;;;5030815;28;20281;-73
2021/10/13 04:21:17;;;;;;;0.80;0.80;;;-0.40;99.90;;;;;;5029449;28;20199;-73
2021/10/13 04:23:43;;;;;;;0.70;0.70;;;-0.40;99.90;;;;;;5014251;28;20199;-73
2021/10/13 04:26:09;;;;;;;0.80;0.80;;;-0.40;99.90;;;;;;5027334;28;20204;-72
2021/10/13 04:28:34;;;;;;;0.80;0.80;;;-0.50;99.90;;;;;;5029378;28;20594;-73
2021/10/13 04:31:00;;;;;;;1.00;1.00;;;-0.50;99.90;;;;;;5029557;28;20194;-73
2021/10/13 04:33:26;;;;;;;0.80;0.80;;;-0.50;99.90;;;;;;5019428;28;20690;-73
2021/10/13 04:35:51;;;;;;;0.80;0.80;;;-0.60;99.90;;;;;;5002518;28;20226;-74
2021/10/13 04:38:17;;;;;;;0.80;0.80;;;-0.60;99.90;;;;;;5029566;28;20292;-73
2021/10/13 04:40:43;;;;;;;0.80;0.80;;;-0.70;99.90;;;;;;5030401;28;20235;-74
2021/10/13 04:43:08;;;;;;;0.90;0.90;;;-0.70;99.90;;;;;;5031215;28;20253;-75
2021/10/13 04:45:35;;;;;;;0.80;0.80;;;-0.70;99.90;;;;;;5033926;28;20190;-74
2021/10/13 04:48:00;;;;;;;0.80;0.80;;;-0.70;99.90;;;;;;5015242;28;20194;-74
2021/10/13 04:50:26;;;;;;;0.80;0.80;;;-0.70;99.90;;;;;;5033880;28;20304;-73
2021/10/13 04:52:52;;;;;;;0.80;0.80;;;-0.80;99.90;;;;;;5016311;28;20202;-73
2021/10/13 04:55:18;;;;;;;0.90;0.90;;;-0.80;99.90;;;;;;5034260;28;20577;-74
2021/10/13 04:57:43;;;;;;;0.80;0.80;;;-0.80;99.90;;;;;;5033208;28;20206;-74
2021/10/13 05:00:11;;;;;;;0.90;0.90;;;-0.80;99.90;;;;;;5033878;28;20301;-74
2021/10/13 05:02:36;;;;;;;0.80;0.80;;;-0.80;99.90;;;;;;5032338;28;20213;-74
2021/10/13 05:05:02;;;;;;;0.90;0.90;;;-0.70;99.90;;;;;;5014740;28;20693;-76
2021/10/13 05:07:28;;;;;;;0.80;0.80;;;-0.70;99.90;;;;;;5033605;28;20202;-72
2021/10/13 05:09:54;;;;;;;0.73;0.73;;;-0.70;99.90;;;;;;5033779;28;20574;-74
2021/10/13 05:12:19;;;;;;;0.90;0.90;;;-0.70;99.90;;;;;;5032449;28;20589;-73
2021/10/13 05:14:45;;;;;;;0.90;0.90;;;-0.80;99.90;;;;;;5033803;28;20210;-75
2021/10/13 05:17:11;;;;;;;0.90;0.90;;;-0.70;99.90;;;;;;5014719;28;20549;-75
2021/10/13 05:19:37;;;;;;;0.90;0.90;;;-0.70;99.90;;;;;;5015513;28;20205;-74
2021/10/13 05:22:03;;;;;;;0.70;0.70;;;-0.70;99.90;;;;;;5033199;28;20579;-75
2021/10/13 05:24:28;;;;;;;1.00;1.00;;;-0.80;99.90;;;;;;5033325;28;20206;-73
2021/10/13 05:26:56;;;;;;;0.70;0.70;;;-0.80;99.90;;;;;;5033544;28;20276;-75
2021/10/13 05:29:22;;;;;;;0.73;0.73;;;-0.80;99.90;;;;;;5033196;28;20194;-75
2021/10/13 05:31:47;;;;;;;0.73;0.73;;;-0.90;99.90;;;;;;5015466;28;20263;-74
2021/10/13 05:34:13;;;;;;;0.70;0.70;;;-0.90;99.90;;;;;;5014604;28;20245;-75
2021/10/13 05:36:38;;;;;;;0.80;0.80;;;-0.90;99.90;;;;;;5033009;28;20538;-75
2021/10/13 05:39:04;;;;;;;0.73;0.73;;;-0.90;99.90;;;;;;5033313;28;20210;-74
2021/10/13 05:41:30;;;;;;;0.80;0.80;;;-0.90;99.90;;;;;;5033223;28;20206;-75
2021/10/13 05:43:55;;;;;;;0.80;0.80;;;-0.80;99.90;;;;;;5033647;28;20206;-75
2021/10/13 05:46:21;;;;;;;0.80;0.80;;;-0.80;99.90;;;;;;5032884;28;20633;-75
2021/10/13 05:48:47;;;;;;;0.80;0.80;;;-0.90;99.90;;;;;;5033116;28;20233;-75
2021/10/13 05:51:38;;;;;;;0.80;0.80;;;-0.90;99.90;;;;;;5015186;28;20202;-75
2021/10/13 05:54:04;;;;;;;0.80;0.80;;;-0.80;99.90;;;;;;5031977;28;20551;-75
2021/10/13 05:56:30;;;;;;;0.80;0.80;;;-0.80;99.90;;;;;;5032629;28;20208;-75
2021/10/13 05:58:55;;;;;;;0.80;0.80;;;-0.80;99.90;;;;;;5013955;28;20213;-75
2021/10/13 06:01:21;;;;;;;0.80;0.80;;;-0.70;99.90;;;;;;5032193;28;20229;-75
2021/10/13 06:03:48;;;;;;;0.90;0.90;;;-0.70;99.90;;;;;;5032455;28;20217;-75
2021/10/13 06:06:15;;;;;;;0.70;0.70;;;-0.70;99.90;;;;;;5014770;28;20281;-75
2021/10/13 06:08:42;;;;;;;0.75;0.75;;;-0.70;99.90;;;;;;5032571;28;20670;-74
2021/10/13 06:11:08;;;;;;;0.77;0.77;;;-0.70;99.90;;;;;;5014662;28;20593;-75
2021/10/13 06:13:34;;;;;;;0.77;0.77;;;-0.60;99.90;;;;;;5014472;28;20210;-75
2021/10/13 06:16:00;;;;;;;0.80;0.80;;;-0.60;99.90;;;;;;5030984;28;20194;-75
2021/10/13 06:18:25;;;;;;;0.80;0.80;;;-0.60;99.90;;;;;;5030833;28;20214;-75
2021/10/13 06:20:51;;;;;;;0.88;0.88;;;-0.50;99.90;;;;;;5032491;28;20210;-75
2021/10/13 06:23:17;;;;;;;0.70;0.70;;;-0.50;99.90;;;;;;5031372;28;20221;-74
2021/10/13 06:25:42;;;;;;;0.80;0.80;;;-0.40;99.90;;;;;;5032217;28;20305;-76
2021/10/13 06:28:08;;;;;;;0.70;0.70;;;-0.30;99.90;;;;;;5012876;28;20226;-76
2021/10/13 06:30:37;;;;;;;0.70;0.70;;;-0.20;99.90;;;;;;5031791;28;20198;-75
2021/10/13 06:33:04;;;;;;;0.80;0.80;;;-0.20;99.90;;;;;;5032022;28;20212;-74
2021/10/13 06:35:29;;;;;;;0.80;0.80;;;-0.10;99.90;;;;;;5012707;28;20322;-75
2021/10/13 06:37:55;;;;;;;0.70;0.70;;;-0.10;99.90;;;;;;5031961;28;20273;-75
2021/10/13 06:40:21;;;;;;;0.80;0.80;;;0.00;99.90;;;;;;5031814;28;20241;-75
2021/10/13 06:42:46;;;;;;;0.85;0.85;;;0.10;99.90;;;;;;5032167;28;20247;-75
2021/10/13 06:45:12;;;;;;;1.02;1.00;;;0.10;99.90;;;;;;5032286;28;20285;-75
2021/10/13 06:47:38;;;;;;;0.80;0.80;;;0.20;99.90;;;;;;5031666;28;20206;-74
2021/10/13 06:50:06;;;;;;;0.70;0.70;;;0.30;99.90;;;;;;5014043;28;20202;-74
2021/10/13 06:52:32;;;;;;;2.85;1.35;;;0.30;99.90;;;;;;5031527;28;20205;-75
2021/10/13 06:54:57;;;;;;;0.75;0.75;;;0.40;99.90;;;;;;5031762;28;20627;-75
2021/10/13 06:57:23;;;;;;;0.70;0.70;;;0.40;99.90;;;;;;5031315;28;20206;-74
2021/10/13 06:59:49;;;;;;;0.60;0.60;;;0.50;99.90;;;;;;5031609;28;20213;-74
2021/10/13 07:02:14;;;;;;;0.70;0.70;;;0.60;99.90;;;;;;5031257;28;20585;-75
2021/10/13 07:04:41;;;;;;;0.80;0.80;;;0.60;99.90;;;;;;5031258;28;20230;-75
2021/10/13 07:07:06;;;;;;;0.70;0.70;;;0.70;99.90;;;;;;5031257;28;20554;-75
2021/10/13 07:09:32;;;;;;;0.75;0.75;;;0.80;99.90;;;;;;5012305;28;20214;-75
2021/10/13 07:11:58;;;;;;;0.80;0.80;;;0.90;99.90;;;;;;5031359;28;20197;-73
2021/10/13 07:14:24;;;;;;;0.70;0.70;;;1.00;99.90;;;;;;5031282;28;20573;-74
2021/10/13 07:16:50;;;;;;;0.70;0.70;;;1.10;99.90;;;;;;5031448;28;20229;-76
2021/10/13 07:19:16;;;;;;;1.10;1.02;;;1.20;99.90;;;;;;5013633;28;20210;-75
2021/10/13 07:21:41;;;;;;;0.60;0.60;;;1.30;99.90;;;;;;5013440;28;20213;-75
2021/10/13 07:24:07;;;;;;;0.60;0.60;;;1.30;99.90;;;;;;5031342;28;20198;-75
2021/10/13 07:26:34;;;;;;;0.80;0.80;;;1.40;99.90;;;;;;5030956;28;20202;-75
2021/10/13 07:29:00;;;;;;;0.80;0.80;;;1.60;99.90;;;;;;5013659;28;20202;-74
2021/10/13 07:31:27;;;;;;;0.70;0.70;;;1.70;99.90;;;;;;5031344;28;20268;-74
2021/10/13 07:33:53;;;;;;;0.60;0.60;;;1.80;99.90;;;;;;5012315;28;20198;-75
2021/10/13 07:36:20;;;;;;;0.60;0.60;;;1.90;99.90;;;;;;5013207;28;20216;-75
2021/10/13 07:38:46;;;;;;;0.55;0.55;;;2.00;99.90;;;;;;5031346;28;20208;-74
2021/10/13 07:41:14;;;;;;;0.60;0.60;;;2.20;99.90;;;;;;5029709;28;20528;-74
2021/10/13 07:43:40;;;;;;;0.65;0.65;;;2.30;99.90;;;;;;5029715;28;20233;-74
2021/10/13 07:46:07;;;;;;;0.70;0.70;;;2.40;99.90;;;;;;5013272;28;20221;-75
2021/10/13 07:48:33;;;;;;;0.80;0.80;;;2.50;99.90;;;;;;5013149;28;20212;-75
2021/10/13 07:51:01;;;;;;;0.52;0.52;;;2.60;99.90;;;;;;5013405;28;20198;-75
2021/10/13 07:53:27;;;;;;;0.80;0.80;;;2.80;99.90;;;;;;5013189;28;20293;-75
2021/10/13 07:55:53;;;;;;;2.05;1.45;;;3.00;99.90;;;;;;5013186;28;20202;-75
2021/10/13 07:58:18;;;;;;;0.70;0.70;;;3.20;99.90;;;;;;5030881;28;20214;-75
2021/10/13 08:00:44;;;;;;;0.85;0.85;;;3.40;99.90;;;;;;5030687;28;20202;-75
2021/10/13 08:03:11;;;;;;;0.70;0.70;;;3.60;99.90;;;;;;5012911;28;20213;-75
2021/10/13 08:05:38;;;;;;;0.63;0.63;;;3.90;99.90;;;;;;5030693;28;20565;-76
2021/10/13 08:08:04;;;;;;;0.70;0.70;;;4.10;99.90;;;;;;5030104;28;20268;-76
2021/10/13 08:10:30;;;;;;;0.70;0.70;;;4.30;99.90;;;;;;5011582;28;20198;-75
2021/10/13 08:12:55;;;;;;;0.60;0.60;;;4.50;99.90;;;;;;5013094;28;20212;-73
2021/10/13 08:15:21;;;;;;;0.63;0.63;;;4.80;99.90;;;;;;5029866;28;20235;-75
2021/10/13 08:17:47;;;;;;;0.60;0.60;;;5.00;99.90;;;;;;5031632;28;20198;-75
2021/10/13 08:20:13;;;;;;;0.60;0.60;;;5.20;99.90;;;;;;5034820;28;20516;-75
2021/10/13 08:22:41;;;;;;;0.82;0.65;;;5.40;99.90;;;;;;5018007;28;20297;-74
2021/10/13 08:25:07;;;;;;;1.70;0.98;;;5.60;99.90;;;;;;5016588;28;20210;-73
2021/10/13 08:27:33;;;;;;;0.60;0.60;;;5.80;99.90;;;;;;5034304;28;20297;-73
2021/10/13 08:29:59;;;;;;;0.50;0.50;;;5.90;99.90;;;;;;5017057;28;20231;-73
2021/10/13 08:32:25;;;;;;;0.60;0.60;;;6.20;99.90;;;;;;5012684;28;20240;-75
2021/10/13 08:34:51;;;;;;;0.60;0.60;;;6.40;99.90;;;;;;5034331;28;20209;-75
2021/10/13 08:37:16;;;;;;;0.60;0.60;;;6.50;99.90;;;;;;5033326;28;20275;-75
2021/10/13 08:39:42;;;;;;;0.77;0.77;;;6.70;99.90;;;;;;5016264;28;20210;-76
2021/10/13 08:42:08;;;;;;;0.60;0.60;;;6.90;99.90;;;;;;5034036;28;20249;-75
2021/10/13 08:44:34;;;;;;;0.75;0.75;;;7.00;99.90;;;;;;5016188;28;20202;-75
2021/10/13 08:47:00;;;;;;;0.70;0.70;;;7.20;99.90;;;;;;5034087;28;20630;-74
2021/10/13 08:49:26;;;;;;;0.65;0.65;;;7.40;99.90;;;;;;5032593;28;20213;-73
2021/10/13 08:51:52;;;;;;;0.60;0.60;;;7.40;99.90;;;;;;5034099;28;20194;-75
2021/10/13 08:54:18;;;;;;;0.70;0.70;;;7.50;99.90;;;;;;5033998;28;20571;-76
2021/10/13 08:56:47;;;;;;;0.60;0.60;;;7.60;99.90;;;;;;5033995;28;20201;-75
2021/10/13 08:59:41;;;;;;;0.75;0.75;;;7.60;99.90;;;;;;5033818;28;20275;-75
2021/10/13 09:02:08;;;;;;;0.60;0.60;;;7.70;99.90;;;;;;5033564;28;20273;-75
2021/10/13 09:04:34;;;;;;;0.70;0.70;;;7.90;99.90;;;;;;5007833;28;20227;-75
2021/10/13 09:07:02;;;;;;;0.57;0.57;;;8.00;99.90;;;;;;5012777;28;20205;-75
2021/10/13 09:09:28;;;;;;;0.60;0.60;;;8.00;99.90;;;;;;4995037;28;20207;-75
2021/10/13 09:11:53;;;;;;;0.55;0.55;;;8.00;99.90;;;;;;5013448;28;20713;-75
2021/10/13 09:14:26;;;;;;;0.70;0.70;;;7.90;99.90;;;;;;5013085;28;20237;-75
2021/10/13 09:17:09;;;;;;;0.50;0.50;;;8.10;99.90;;;;;;5013381;28;20194;-75
2021/10/13 09:19:36;;;;;;;0.60;0.60;;;8.30;99.90;;;;;;4995168;28;20213;-76
2021/10/13 09:22:03;;;;;;;0.60;0.60;;;8.60;99.90;;;;;;5012885;28;20230;-75
2021/10/13 09:24:31;;;;;;;0.60;0.60;;;8.80;99.90;;;;;;5013368;28;20716;-75
2021/10/13 09:27:16;;;;;;;0.70;0.70;;;8.70;99.90;;;;;;5012668;28;20248;-74
2021/10/13 09:29:43;;;;;;;0.70;0.70;;;8.60;99.90;;;;;;5013515;28;20231;-75
2021/10/13 09:32:09;;;;;;;0.70;0.70;;;8.90;99.90;;;;;;5012613;28;20548;-75
2021/10/13 09:34:35;;;;;;;0.70;0.70;;;9.20;99.90;;;;;;4995076;28;20294;-75
2021/10/13 09:37:01;;;;;;;0.60;0.60;;;9.40;99.90;;;;;;5010947;28;20203;-75
2021/10/13 09:39:31;;;;;;;0.63;0.63;;;9.50;99.90;;;;;;4993673;28;20690;-75
2021/10/13 09:42:10;;;;;;;0.60;0.60;;;9.60;99.90;;;;;;4991284;28;20587;-75
2021/10/13 09:44:38;;;;;;;0.60;0.60;;;9.70;99.90;;;;;;4993507;28;20226;-75
2021/10/13 09:47:10;;;;;;;0.50;0.50;;;9.80;99.90;;;;;;5011353;28;20203;-75
2021/10/13 09:49:39;;;;;;;0.50;0.50;;;9.90;99.90;;;;;;4996874;28;20207;-74
2021/10/13 09:52:11;;;;;;;0.60;0.60;;;10.00;99.90;;;;;;5012216;28;20689;-74
2021/10/13 09:54:39;;;;;;;0.43;0.43;;;10.20;99.90;;;;;;5011875;28;20206;-74
2021/10/13 09:57:23;;;;;;;0.50;0.50;;;10.40;99.90;;;;;;4994417;28;20745;-74
2021/10/13 10:00:24;;;;;;;0.60;0.60;;;10.60;99.90;;;;;;5011946;28;20286;-75
2021/10/13 10:02:54;;;;;;;0.60;0.60;;;10.70;99.90;;;;;;5011309;28;20318;-75
2021/10/13 10:05:25;;;;;;;0.60;0.60;;;10.90;99.90;;;;;;5024267;28;20226;-75
2021/10/13 10:08:08;;;;;;;0.65;0.65;;;10.60;99.90;;;;;;5033111;28;20210;-74
2021/10/13 10:10:36;;;;;;;0.60;0.60;;;10.50;99.90;;;;;;5032586;28;20209;-74
2021/10/13 10:13:08;;;;;;;0.60;0.60;;;10.00;99.90;;;;;;5032993;28;20217;-74
2021/10/13 10:15:35;;;;;;;0.95;0.95;;;9.80;99.90;;;;;;5032760;28;20305;-73
2021/10/13 10:18:02;;;;;;;0.60;0.60;;;9.90;99.90;;;;;;5032606;28;20206;-74
2021/10/13 10:20:36;;;;;;;0.60;0.60;;;10.20;99.90;;;;;;5014365;28;20359;-74
2021/10/13 10:23:22;;;;;;;0.60;0.60;;;10.40;99.90;;;;;;5032359;28;20670;-73
2021/10/13 10:25:48;;;;;;;0.70;0.70;;;10.50;99.90;;;;;;5032124;28;20633;-73
2021/10/13 10:28:52;;;;;;;0.60;0.60;;;10.70;99.90;;;;;;5030916;28;20207;-74
2021/10/13 10:31:26;;;;;;;0.60;0.60;;;10.90;99.90;;;;;;5028818;28;20601;-74
2021/10/13 10:34:06;;;;;;;0.60;0.60;;;10.90;99.90;;;;;;5013936;28;20672;-75
2021/10/13 10:36:34;;;;;;;0.70;0.70;;;11.10;99.90;;;;;;5031774;28;20213;-74
2021/10/13 10:39:05;;;;;;;0.60;0.60;;;11.40;99.90;;;;;;5014559;28;20669;-74
2021/10/13 10:41:45;;;;;;;0.60;0.60;;;11.40;99.90;;;;;;5030431;28;20570;-75
2021/10/13 10:44:30;;;;;;;0.55;0.55;;;11.40;99.90;;;;;;5014137;28;20209;-74
2021/10/13 10:47:16;;;;;;;0.63;0.63;;;11.50;99.90;;;;;;5015694;28;20252;-74
2021/10/13 10:49:49;;;;;;;0.60;0.60;;;11.70;99.90;;;;;;5013998;28;20217;-74
2021/10/13 10:52:24;;;;;;;1.05;0.95;;;11.50;99.90;;;;;;5014067;28;20724;-73
2021/10/13 10:55:20;;;;;;;0.45;0.45;;;11.60;99.90;;;;;;5031837;28;20227;-74
2021/10/13 10:57:47;;;;;;;0.50;0.50;;;11.70;99.90;;;;;;5025737;28;20661;-75
2021/10/13 11:00:22;;;;;;;0.50;0.50;;;11.70;99.90;;;;;;5012669;28;20210;-74
2021/10/13 11:03:11;;;;;;;0.60;0.60;;;11.60;99.90;;;;;;5013622;28;20668;-73
2021/10/13 11:05:36;;;;;;;0.60;0.60;;;11.80;99.90;;;;;;5031112;28;20238;-74
2021/10/13 11:08:02;;;;;;;0.50;0.50;;;11.80;99.90;;;;;;5031731;28;20194;-74
2021/10/13 11:10:28;;;;;;;0.60;0.60;;;12.00;99.90;;;;;;5013741;28;20549;-73
2021/10/13 11:12:57;;;;;;;0.50;0.50;;;12.20;99.90;;;;;;5013823;28;20271;-74
2021/10/13 11:15:28;;;;;;;0.50;0.50;;;12.30;99.90;;;;;;5031528;28;20585;-74
2021/10/13 11:17:54;;;;;;;0.50;0.50;;;12.30;99.90;;;;;;5031911;28;20233;-74
2021/10/13 11:20:23;;;;;;;0.60;0.60;;;11.90;99.90;;;;;;5031455;28;20252;-74
2021/10/13 11:23:05;;;;;;;0.50;0.50;;;11.60;99.90;;;;;;5013819;28;20237;-74
2021/10/13 11:25:32;;;;;;;0.60;0.60;;;11.40;99.90;;;;;;5015972;28;20234;-74
2021/10/13 11:28:14;;;;;;;0.60;0.60;;;11.20;99.90;;;;;;5013805;28;20286;-73
2021/10/13 11:30:46;;;;;;;0.60;0.60;;;11.00;99.90;;;;;;4998454;28;20212;-74
2021/10/13 11:33:15;;;;;;;0.52;0.52;;;10.90;99.90;;;;;;5030161;28;20595;-71
2021/10/13 11:35:41;;;;;;;0.52;0.52;;;10.90;99.90;;;;;;5013605;28;20209;-73
2021/10/13 11:38:13;;;;;;;0.60;0.60;;;10.80;99.90;;;;;;5012968;28;20537;-73
2021/10/13 11:40:38;;;;;;;0.52;0.52;;;10.80;99.90;;;;;;5030912;28;20296;-73
2021/10/13 11:43:10;;;;;;;0.60;0.60;;;10.70;99.90;;;;;;5031541;28;20300;-74
2021/10/13 11:45:44;;;;;;;0.60;0.60;;;10.60;99.90;;;;;;5030723;28;20206;-74
2021/10/13 11:48:10;;;;;;;0.60;0.60;;;10.60;99.90;;;;;;5030977;28;20201;-73
2021/10/13 11:50:40;;;;;;;0.52;0.52;;;10.50;99.90;;;;;;5013527;28;20205;-74
2021/10/13 11:53:05;;;;;;;0.50;0.50;;;10.40;99.90;;;;;;5032666;28;20202;-75
2021/10/13 11:55:33;;;;;;;0.60;0.60;;;10.50;99.90;;;;;;5035472;28;20229;-74
2021/10/13 11:58:05;;;;;;;0.50;0.50;;;10.80;99.90;;;;;;5017317;28;20214;-75
2021/10/13 12:00:43;;;;;;;0.50;0.50;;;11.10;99.90;;;;;;5015872;28;20202;-76
2021/10/13 12:03:11;;;;;;;0.60;0.60;;;11.40;99.90;;;;;;5033920;28;20237;-74
2021/10/13 12:05:50;;;;;;;0.70;0.70;;;11.60;99.90;;;;;;5028564;28;20611;-74
2021/10/13 12:08:17;;;;;;;0.60;0.60;;;11.70;99.90;;;;;;5030278;28;20754;-74
2021/10/13 12:10:51;;;;;;;0.63;0.63;;;12.00;99.90;;;;;;5033873;28;20674;-74
2021/10/13 12:13:28;;;;;;;0.52;0.52;;;12.10;99.90;;;;;;5033719;28;20202;-75
2021/10/13 12:16:03;;;;;;;0.52;0.52;;;12.20;99.90;;;;;;5017293;28;20372;-75
2021/10/13 12:18:35;;;;;;;0.50;0.50;;;12.10;99.90;;;;;;5034672;28;20571;-75
2021/10/13 12:21:01;;;;;;;0.60;0.60;;;12.30;99.90;;;;;;5017018;28;20229;-74
2021/10/13 12:23:27;;;;;;;0.60;0.60;;;12.40;99.90;;;;;;5017373;28;20245;-75
2021/10/13 12:25:53;;;;;;;0.50;0.50;;;12.40;99.90;;;;;;5030226;28;20201;-75
2021/10/13 12:28:23;;;;;;;0.50;0.50;;;12.50;99.90;;;;;;5033459;28;20206;-75
2021/10/13 12:31:10;;;;;;;0.50;0.50;;;12.50;99.90;;;;;;5016821;28;20209;-75
2021/10/13 12:33:39;;;;;;;0.60;0.60;;;12.80;99.90;;;;;;5016794;28;20265;-75
2021/10/13 12:36:11;;;;;;;0.55;0.55;;;12.60;99.90;;;;;;5030369;28;20209;-75
2021/10/13 12:38:45;;;;;;;0.60;0.60;;;12.40;99.90;;;;;;5034431;28;20202;-75
2021/10/13 12:41:11;;;;;;;0.57;0.57;;;12.30;99.90;;;;;;5033393;28;20205;-75
2021/10/13 12:43:43;;;;;;;0.52;0.52;;;12.20;99.90;;;;;;5016253;28;20799;-75
2021/10/13 12:46:31;;;;;;;0.60;0.60;;;11.90;99.90;;;;;;5022419;28;20206;-76
2021/10/13 12:48:59;;;;;;;0.50;0.50;;;11.70;99.90;;;;;;5020697;28;20230;-74
2021/10/13 12:51:24;;;;;;;0.60;0.60;;;11.40;99.90;;;;;;5024007;28;20241;-74
2021/10/13 12:53:50;;;;;;;0.50;0.50;;;11.30;99.90;;;;;;5016413;28;20230;-75
2021/10/13 12:56:17;;;;;;;0.50;0.50;;;11.30;99.90;;;;;;5033036;28;20220;-75
2021/10/13 12:58:46;;;;;;;0.60;0.60;;;11.20;99.90;;;;;;5034026;28;20575;-75
2021/10/13 13:01:12;;;;;;;0.60;0.60;;;10.90;99.90;;;;;;5033896;28;20198;-73
2021/10/13 13:03:38;;;;;;;0.70;0.70;;;10.70;99.90;;;;;;5032211;28;20676;-76
2021/10/13 13:06:05;;;;;;;0.60;0.60;;;10.60;99.90;;;;;;4997814;28;20223;-75